Ester, AK (99725)

7:50 AM AKDT on June 03, 2015 (GMT -0800)
Skyflight Avenue | | Change Station
CLOSE
Current Station
Personal Weather Station
Location: Fairbanks, AK
Elevation: 1110 ft
Nearby Weather Stations

Elev 1110 ft 64.93 °N, 147.89 °W | Updated 11 minutes ago

Overcast
Overcast
44.8 °F
Feels Like 45 °F
N
1.0
Wind Variable Wind from SE
Gusts 2.0 mph

Today
High -- | Low -- °F
--% Chance of Precip.
Yesterday
High -- | Low -- °F
Precip. -- in
3:26 AM 0:18 AM
Full, 99% visible
Pressure 29.60 in
Visibility 10.0 miles
Clouds Mostly Cloudy 5500 ft
Overcast 11000 ft
Windchill 45 °F
Dew Point 28 °F
Humidity 52%
Rainfall 0.00 in
Snow Depth Not available.
UV 0 out of 12
Pollen Not available.
Air Quality Not available.
Flu Activity Sporadic
METAR PAFA 031453Z 11005KT 10SM BKN055 OVC110 08/M01 A2959 RMK AO2 SLP023 T00781006 53000

More Conditions Fewer Conditions

Pressure 29.60 in
Visibility 10.0 miles
Clouds Mostly Cloudy 5500 ft
Overcast 11000 ft
Windchill 45 °F
Dew Point 28 °F
Humidity 52%
Rainfall 0.00 in
Snow Depth Not available.
UV 0 out of 12
Pollen Not available.
Air Quality Not available.
Flu Activity Sporadic
METAR PAFA 031453Z 11005KT 10SM BKN055 OVC110 08/M01 A2959 RMK AO2 SLP023 T00781006 53000

More Conditions Fewer Conditions

10-Day Weather Forecast

×

Almanac

Astronomy

Jun. 03, 2015 Rise Set
Actual Time
Civil Twilight
Nautical Twilight
Astronomical Twilight
Moon
Length of Visible Light
Length of Day
Tomorrow will be .
, % of the Moon is Illuminated

Today's Extremes

State Highs State Lows

Community

WunderPhotos

Upload Photos

1,826,241 photos uploaded!

WunderBlogs® & News

Nearby

Air Quality

  Air Quality AQ Index Pollutant
Not available.

Snow Depth

Station Depth Elevation

Earthquake Activity

City Distance Mag. Time & Date
Minimum magnitude displayed is 2.5.

Coastal Water Temperatures

Place Temperature

Stations

Nearby Weather Stations

Station Location Temp. Windchill Dew Point Humidity Wind Precip. Elev Updated Type